createdAt,value
2022-09-25T00:00:14.077Z,4.20
2022-09-25T00:02:42.519Z,4.40
2022-09-25T00:05:11.277Z,7.37
2022-09-25T00:07:41.058Z,4.97
2022-09-25T00:10:10.436Z,3.80
2022-09-25T00:12:39.491Z,2.37
2022-09-25T00:15:10.909Z,5.47
2022-09-25T00:17:39.095Z,3.60
2022-09-25T00:20:07.507Z,4.03
2022-09-25T00:22:36.222Z,3.97
2022-09-25T00:25:06.794Z,4.07
2022-09-25T00:27:35.137Z,2.87
2022-09-25T00:30:03.700Z,2.30
2022-09-25T00:32:32.397Z,2.17
2022-09-25T00:35:00.706Z,3.73
2022-09-25T00:37:29.621Z,3.87
2022-09-25T00:39:58.413Z,5.27
2022-09-25T00:42:28.397Z,6.60
2022-09-25T00:45:00.911Z,4.47
2022-09-25T00:47:53.982Z,6.20
2022-09-25T00:50:31.926Z,3.23
2022-09-25T00:53:06.186Z,5.13
2022-09-25T00:55:36.514Z,5.53
2022-09-25T00:58:07.315Z,6.77
2022-09-25T01:00:36.138Z,5.07
2022-09-25T01:03:05.827Z,9.40
2022-09-25T01:05:37.338Z,6.10
2022-09-25T01:08:10.154Z,4.50
2022-09-25T01:10:38.734Z,5.97
2022-09-25T01:13:09.047Z,7.87
2022-09-25T01:15:43.453Z,7.80
2022-09-25T01:18:23.557Z,5.83
2022-09-25T01:21:09.077Z,7.63
2022-09-25T01:24:42.885Z,3.37
2022-09-25T01:27:51.049Z,3.53
2022-09-25T01:30:21.751Z,5.50
2022-09-25T01:33:04.563Z,6.93
2022-09-25T01:35:46.641Z,3.33
2022-09-25T01:38:23.208Z,6.07
2022-09-25T01:41:00.939Z,4.53
2022-09-25T01:43:34.410Z,4.87
2022-09-25T01:46:09.771Z,6.50
2022-09-25T01:48:40.608Z,3.67
2022-09-25T01:51:15.035Z,5.70
2022-09-25T01:53:52.186Z,4.57
2022-09-25T01:56:33.152Z,4.40
2022-09-25T01:59:07.103Z,2.50
2022-09-25T02:01:40.835Z,4.27
2022-09-25T02:04:13.647Z,4.83
2022-09-25T02:06:48.150Z,4.80
2022-09-25T02:09:20.916Z,10.23
2022-09-25T02:11:56.258Z,6.20
2022-09-25T02:14:28.956Z,4.13
2022-09-25T02:17:01.429Z,6.70
2022-09-25T02:19:47.553Z,3.30
2022-09-25T02:22:20.537Z,4.40
2022-09-25T02:24:58.700Z,3.07
2022-09-25T02:27:29.609Z,4.03
2022-09-25T02:29:58.778Z,3.63
2022-09-25T02:32:31.867Z,3.27
2022-09-25T02:35:00.932Z,4.07
2022-09-25T02:37:29.909Z,3.70
2022-09-25T02:40:02.463Z,5.37
2022-09-25T02:42:42.148Z,4.27
2022-09-25T02:45:35.362Z,5.37
2022-09-25T02:48:12.710Z,4.73
2022-09-25T02:50:53.944Z,4.57
2022-09-25T02:53:31.174Z,3.77
2022-09-25T02:56:04.486Z,3.87
2022-09-25T02:58:37.370Z,4.27
2022-09-25T03:01:08.474Z,6.50
2022-09-25T03:03:39.467Z,4.47
2022-09-25T03:06:09.520Z,7.03
2022-09-25T03:08:41.771Z,4.77
2022-09-25T03:11:13.216Z,6.50
2022-09-25T03:13:42.768Z,4.47
2022-09-25T03:16:16.556Z,3.60
2022-09-25T03:18:46.511Z,6.80
2022-09-25T03:21:15.261Z,8.43
2022-09-25T03:23:43.442Z,5.70
2022-09-25T03:26:11.687Z,6.80
2022-09-25T03:28:40.198Z,5.00
2022-09-25T03:31:11.464Z,5.80
2022-09-25T03:33:41.596Z,5.93
2022-09-25T03:36:13.053Z,5.50
2022-09-25T03:38:42.548Z,5.27
2022-09-25T03:41:12.195Z,5.87
2022-09-25T03:43:41.864Z,4.40
2022-09-25T03:46:11.681Z,6.67
2022-09-25T03:48:41.337Z,5.20
2022-09-25T03:51:11.445Z,6.90
2022-09-25T03:53:40.159Z,5.40
2022-09-25T03:56:10.310Z,4.67
2022-09-25T03:58:38.567Z,6.03
2022-09-25T04:01:07.808Z,3.47
2022-09-25T04:03:36.189Z,5.17
2022-09-25T04:06:06.357Z,4.17
2022-09-25T04:08:37.425Z,4.83
2022-09-25T04:11:06.388Z,4.67
2022-09-25T04:13:37.325Z,3.90
2022-09-25T04:16:08.306Z,6.90
2022-09-25T04:18:37.350Z,5.23
2022-09-25T04:21:08.352Z,4.17
2022-09-25T04:23:39.008Z,5.57
2022-09-25T04:26:07.957Z,3.63
2022-09-25T04:28:36.523Z,5.33
2022-09-25T04:31:05.572Z,6.37
2022-09-25T04:33:48.177Z,4.40
2022-09-25T04:36:17.223Z,6.00
2022-09-25T04:38:48.140Z,4.00
2022-09-25T04:41:20.028Z,5.37
2022-09-25T04:43:48.461Z,8.00
2022-09-25T04:46:21.819Z,4.73
2022-09-25T04:48:51.372Z,4.43
2022-09-25T04:51:22.427Z,4.40
2022-09-25T04:53:52.022Z,6.17
2022-09-25T04:56:20.298Z,6.07
2022-09-25T04:58:50.579Z,5.37
2022-09-25T05:01:21.043Z,6.10
2022-09-25T05:03:50.446Z,11.00
2022-09-25T05:06:19.102Z,6.40
2022-09-25T05:08:49.538Z,7.53
2022-09-25T05:11:19.220Z,6.30
2022-09-25T05:13:51.578Z,5.20
2022-09-25T05:16:20.580Z,8.23
2022-09-25T05:18:48.967Z,4.00
2022-09-25T05:21:17.255Z,5.47
2022-09-25T05:23:45.593Z,4.70
2022-09-25T05:26:13.866Z,3.70
2022-09-25T05:28:43.620Z,4.97
2022-09-25T05:31:12.041Z,4.30
2022-09-25T05:33:41.141Z,3.77
2022-09-25T05:36:10.134Z,3.43
2022-09-25T05:38:40.479Z,3.43
2022-09-25T05:41:10.873Z,7.10
2022-09-25T05:43:41.318Z,5.63
2022-09-25T05:46:11.964Z,4.10
2022-09-25T05:48:40.923Z,5.60
2022-09-25T05:51:09.773Z,5.13
2022-09-25T05:53:38.558Z,5.60
2022-09-25T05:56:07.277Z,5.00
2022-09-25T05:58:36.228Z,6.23
2022-09-25T06:01:06.077Z,5.40
2022-09-25T06:03:36.159Z,4.43
2022-09-25T06:06:04.832Z,5.07
2022-09-25T06:08:35.665Z,7.17
2022-09-25T06:11:05.075Z,6.23
2022-09-25T06:13:34.852Z,4.20
2022-09-25T06:16:04.086Z,6.83
2022-09-25T06:18:33.886Z,5.80
2022-09-25T06:21:06.376Z,6.13
2022-09-25T06:23:34.909Z,7.30
2022-09-25T06:26:03.898Z,5.07
2022-09-25T06:28:32.276Z,6.37
2022-09-25T06:31:02.161Z,7.07
2022-09-25T06:33:33.439Z,6.67
2022-09-25T06:36:03.383Z,8.13
2022-09-25T06:38:33.328Z,6.00
2022-09-25T06:41:01.843Z,6.30
2022-09-25T06:43:31.219Z,8.73
2022-09-25T06:46:03.780Z,7.50
2022-09-25T06:48:32.944Z,8.40
2022-09-25T06:51:03.647Z,7.80
2022-09-25T06:53:31.889Z,6.13
2022-09-25T06:56:00.928Z,10.53
2022-09-25T06:58:30.712Z,9.73
2022-09-25T07:00:59.174Z,7.80
2022-09-25T07:03:44.804Z,8.37
2022-09-25T07:06:17.151Z,6.07
2022-09-25T07:08:46.339Z,6.37
2022-09-25T07:11:16.609Z,6.93
2022-09-25T07:13:45.472Z,7.60
2022-09-25T07:16:15.684Z,7.33
2022-09-25T07:18:44.899Z,7.83
2022-09-25T07:21:15.998Z,4.27
2022-09-25T07:23:44.637Z,6.43
2022-09-25T07:26:14.943Z,6.00
2022-09-25T07:28:44.998Z,6.27
2022-09-25T07:31:15.729Z,5.20
2022-09-25T07:33:44.710Z,6.23
2022-09-25T07:36:15.253Z,5.07
2022-09-25T07:38:43.931Z,8.13
2022-09-25T07:41:13.039Z,4.37
2022-09-25T07:43:43.501Z,8.10
2022-09-25T07:46:12.513Z,4.23
2022-09-25T07:48:41.035Z,3.47
2022-09-25T07:51:12.217Z,5.03
2022-09-25T07:53:42.767Z,5.80
2022-09-25T07:56:12.835Z,6.40
2022-09-25T07:58:41.656Z,6.67
2022-09-25T08:01:13.530Z,5.17
2022-09-25T08:03:41.974Z,4.37
2022-09-25T08:06:13.265Z,7.93
2022-09-25T08:08:44.225Z,4.53
2022-09-25T08:11:15.245Z,5.83
2022-09-25T08:13:44.055Z,4.50
2022-09-25T08:16:14.421Z,5.00
2022-09-25T08:18:44.031Z,4.07
2022-09-25T08:21:14.396Z,3.43
2022-09-25T08:23:48.142Z,6.77
2022-09-25T08:26:16.764Z,4.37
2022-09-25T08:28:45.229Z,6.77
2022-09-25T08:31:14.567Z,5.30
2022-09-25T08:33:46.984Z,5.53
2022-09-25T08:36:15.897Z,2.53
2022-09-25T08:38:46.815Z,3.00
2022-09-25T08:41:19.695Z,7.03
2022-09-25T08:43:57.267Z,2.73
2022-09-25T08:46:51.405Z,3.37
2022-09-25T08:49:25.104Z,2.90
2022-09-25T08:51:57.948Z,3.10
2022-09-25T08:54:30.467Z,6.57
2022-09-25T08:57:02.765Z,1.87
2022-09-25T08:59:35.816Z,4.10
2022-09-25T09:02:13.662Z,3.77
2022-09-25T09:04:45.976Z,4.67
2022-09-25T09:07:26.903Z,3.33
2022-09-25T09:10:07.632Z,7.70
2022-09-25T09:12:38.849Z,5.60
2022-09-25T09:15:19.176Z,2.47
2022-09-25T09:17:47.421Z,4.53
2022-09-25T09:20:19.331Z,2.50
2022-09-25T09:22:50.975Z,2.60
2022-09-25T09:25:29.987Z,2.70
2022-09-25T09:28:11.225Z,5.07
2022-09-25T09:30:50.785Z,3.33
2022-09-25T09:33:35.433Z,3.20
2022-09-25T09:36:12.246Z,3.40
2022-09-25T09:38:48.851Z,3.80
2022-09-25T09:41:34.722Z,2.25
2022-09-25T09:44:18.763Z,3.17
2022-09-25T09:46:56.518Z,2.93
2022-09-25T09:49:33.283Z,2.45
2022-09-25T09:52:06.142Z,2.42
2022-09-25T09:54:39.788Z,4.22
2022-09-25T09:57:17.703Z,4.00
2022-09-25T09:59:50.839Z,3.20
2022-09-25T10:02:33.388Z,3.90
2022-09-25T10:05:05.810Z,2.13
2022-09-25T10:07:39.230Z,3.30
2022-09-25T10:10:14.360Z,1.80
2022-09-25T10:12:47.910Z,3.08
2022-09-25T10:15:25.488Z,1.65
2022-09-25T10:17:55.311Z,1.37
2022-09-25T10:20:25.883Z,1.00
2022-09-25T10:22:56.671Z,2.93
2022-09-25T10:25:38.130Z,1.83
2022-09-25T10:28:30.714Z,2.70
2022-09-25T10:31:00.167Z,1.38
2022-09-25T10:33:30.751Z,3.25
2022-09-25T10:35:59.167Z,3.53
2022-09-25T10:38:37.717Z,2.15
2022-09-25T10:41:09.337Z,1.40
2022-09-25T10:43:52.159Z,1.53
2022-09-25T10:46:43.329Z,2.63
2022-09-25T10:49:33.786Z,3.33
2022-09-25T10:52:07.625Z,2.00
2022-09-25T10:54:43.707Z,3.10
2022-09-25T10:57:18.749Z,4.03
2022-09-25T10:59:52.649Z,1.90
2022-09-25T11:02:32.663Z,2.97
2022-09-25T11:05:02.042Z,2.77
2022-09-25T11:07:33.290Z,1.37
2022-09-25T11:10:01.643Z,1.33
2022-09-25T11:12:30.568Z,1.67
2022-09-25T11:15:03.204Z,2.93
2022-09-25T11:17:34.512Z,0.90
2022-09-25T11:20:30.895Z,2.38
2022-09-25T11:23:32.382Z,2.58
2022-09-25T11:26:07.370Z,0.98
2022-09-25T11:28:44.573Z,1.13
2022-09-25T11:31:23.889Z,1.00
2022-09-25T11:33:57.893Z,1.27
2022-09-25T11:36:30.505Z,0.95
2022-09-25T11:39:36.150Z,3.15
2022-09-25T11:42:09.355Z,2.33
2022-09-25T11:44:44.714Z,0.60
2022-09-25T11:47:20.137Z,1.02
2022-09-25T11:49:51.480Z,1.52
2022-09-25T11:52:40.254Z,2.47
2022-09-25T11:55:24.422Z,1.27
2022-09-25T11:58:02.107Z,1.13
2022-09-25T12:00:41.011Z,0.52
2022-09-25T12:03:30.382Z,1.77
2022-09-25T12:06:13.897Z,0.67
2022-09-25T12:08:55.699Z,2.63
2022-09-25T12:11:38.034Z,1.43
2022-09-25T12:14:14.440Z,2.13
2022-09-25T12:16:51.994Z,1.83
2022-09-25T12:19:35.718Z,1.33
2022-09-25T12:22:09.804Z,0.50
2022-09-25T12:24:54.467Z,1.00
2022-09-25T12:27:31.744Z,2.10
2022-09-25T12:30:15.544Z,1.27
2022-09-25T12:33:20.858Z,1.02
2022-09-25T12:35:55.185Z,2.90
2022-09-25T12:38:41.335Z,0.95
2022-09-25T12:41:18.033Z,0.88
2022-09-25T12:43:52.081Z,0.88
2022-09-25T12:46:26.820Z,2.22
2022-09-25T12:49:01.904Z,1.35
2022-09-25T12:51:40.567Z,0.88
2022-09-25T12:54:20.768Z,1.85
2022-09-25T12:56:56.322Z,0.60
2022-09-25T12:59:29.832Z,1.33
2022-09-25T13:02:05.151Z,2.05
2022-09-25T13:04:44.647Z,1.30
2022-09-25T13:07:23.489Z,1.85
2022-09-25T13:09:52.236Z,0.45
2022-09-25T13:12:29.247Z,1.08
2022-09-25T13:15:01.126Z,0.77
2022-09-25T13:17:31.313Z,0.52
2022-09-25T13:20:37.000Z,1.50
2022-09-25T13:23:10.270Z,1.38
2022-09-25T13:25:43.342Z,1.25
2022-09-25T13:28:20.375Z,1.08
2022-09-25T13:31:03.268Z,2.85
2022-09-25T13:33:39.201Z,0.98
2022-09-25T13:36:09.596Z,0.38
2022-09-25T13:39:03.504Z,0.30
2022-09-25T13:41:33.435Z,1.13
2022-09-25T13:44:51.126Z,0.52
2022-09-25T13:47:56.108Z,0.65
2022-09-25T13:50:28.530Z,2.17
2022-09-25T13:53:24.886Z,1.85
2022-09-25T13:56:26.672Z,1.83
2022-09-25T13:59:24.651Z,2.88
2022-09-25T14:01:56.118Z,1.40
2022-09-25T14:04:37.417Z,1.17
2022-09-25T14:07:24.941Z,1.35
2022-09-25T14:09:56.254Z,2.10
2022-09-25T14:12:32.699Z,0.88
2022-09-25T14:15:07.519Z,1.90
2022-09-25T14:17:38.041Z,3.30
2022-09-25T14:20:18.827Z,1.08
2022-09-25T14:22:54.040Z,2.55
2022-09-25T14:25:28.506Z,1.65
2022-09-25T14:27:56.917Z,1.83
2022-09-25T14:30:30.245Z,3.17
2022-09-25T14:33:22.183Z,2.75
2022-09-25T14:36:01.706Z,1.65
2022-09-25T14:38:52.161Z,4.93
2022-09-25T14:41:46.629Z,1.00
2022-09-25T14:44:28.418Z,1.70
2022-09-25T14:46:58.749Z,1.60
2022-09-25T14:49:29.486Z,1.17
2022-09-25T14:52:02.696Z,1.45
2022-09-25T14:54:36.592Z,0.75
2022-09-25T14:57:06.291Z,1.50
2022-09-25T14:59:40.434Z,1.08
2022-09-25T15:02:18.535Z,1.15
2022-09-25T15:04:47.697Z,1.00
2022-09-25T15:07:17.573Z,0.82
2022-09-25T15:09:48.554Z,1.30
2022-09-25T15:12:24.559Z,2.15
2022-09-25T15:15:03.893Z,0.73
2022-09-25T15:17:37.222Z,3.50
2022-09-25T15:20:08.499Z,1.17
2022-09-25T15:22:39.614Z,2.63
2022-09-25T15:25:09.914Z,0.73
2022-09-25T15:27:43.624Z,2.55
2022-09-25T15:30:17.298Z,2.63
2022-09-25T15:32:50.568Z,2.75
2022-09-25T15:35:22.621Z,1.10
2022-09-25T15:37:51.298Z,1.23
2022-09-25T15:40:25.693Z,1.52
2022-09-25T15:42:56.764Z,1.85
2022-09-25T15:45:41.703Z,1.30
2022-09-25T15:48:16.985Z,1.52
2022-09-25T15:50:46.112Z,3.72
2022-09-25T15:53:24.901Z,0.80
2022-09-25T15:56:06.391Z,2.90
2022-09-25T15:58:51.752Z,2.45
2022-09-25T16:01:41.780Z,2.00
2022-09-25T16:04:38.600Z,1.15
2022-09-25T16:07:24.434Z,3.10
2022-09-25T16:09:54.189Z,1.70
2022-09-25T16:12:28.232Z,1.23
2022-09-25T16:14:57.973Z,1.23
2022-09-25T16:17:33.645Z,1.40
2022-09-25T16:20:07.593Z,1.20
2022-09-25T16:22:42.518Z,1.27
2022-09-25T16:25:22.181Z,2.53
2022-09-25T16:27:50.953Z,1.03
2022-09-25T16:30:22.361Z,0.90
2022-09-25T16:32:54.598Z,0.73
2022-09-25T16:35:40.672Z,1.20
2022-09-25T16:38:28.234Z,1.83
2022-09-25T16:41:04.553Z,1.37
2022-09-25T16:43:35.637Z,0.73
2022-09-25T16:46:12.788Z,0.70
2022-09-25T16:48:42.222Z,2.03
2022-09-25T16:51:15.110Z,1.10
2022-09-25T16:53:44.915Z,1.50
2022-09-25T16:56:21.782Z,2.20
2022-09-25T16:58:50.727Z,2.67
2022-09-25T17:01:19.711Z,1.97
2022-09-25T17:03:52.802Z,2.33
2022-09-25T17:06:24.188Z,1.17
2022-09-25T17:08:52.516Z,0.70
2022-09-25T17:11:22.421Z,1.87
2022-09-25T17:13:52.582Z,2.47
2022-09-25T17:16:20.953Z,1.50
2022-09-25T17:18:49.432Z,1.30
2022-09-25T17:21:19.446Z,1.30
2022-09-25T17:23:49.148Z,2.13
2022-09-25T17:26:20.933Z,0.73
2022-09-25T17:28:49.598Z,1.07
2022-09-25T17:31:20.391Z,2.10
2022-09-25T17:33:49.929Z,2.00
2022-09-25T17:36:18.626Z,1.80
2022-09-25T17:38:48.191Z,2.40
2022-09-25T17:41:20.715Z,0.77
2022-09-25T17:43:49.603Z,1.10
2022-09-25T17:46:19.243Z,1.77
2022-09-25T17:48:53.958Z,1.20
2022-09-25T17:51:24.865Z,1.90
2022-09-25T17:53:56.200Z,2.30
2022-09-25T17:56:25.740Z,2.07
2022-09-25T17:58:57.362Z,2.37
2022-09-25T18:01:27.776Z,1.80
2022-09-25T18:03:57.788Z,2.93
2022-09-25T18:06:28.012Z,1.43
2022-09-25T18:08:57.846Z,1.43
2022-09-25T18:11:26.881Z,1.83
2022-09-25T18:13:57.975Z,1.90
2022-09-25T18:16:29.715Z,3.50
2022-09-25T18:19:21.138Z,3.40
2022-09-25T18:22:06.947Z,4.03
2022-09-25T18:24:36.867Z,4.20
2022-09-25T18:27:05.288Z,3.27
2022-09-25T18:29:36.297Z,3.53
2022-09-25T18:32:05.057Z,4.43
2022-09-25T18:34:33.275Z,3.60
2022-09-25T18:37:01.619Z,4.13
2022-09-25T18:39:30.514Z,4.37
2022-09-25T18:42:00.243Z,4.37
2022-09-25T18:44:29.087Z,4.33
2022-09-25T18:46:57.474Z,3.97
2022-09-25T18:49:26.500Z,5.60
2022-09-25T18:51:55.654Z,5.67
2022-09-25T18:54:23.992Z,5.47
2022-09-25T18:56:52.585Z,6.40
2022-09-25T18:59:36.442Z,5.30
2022-09-25T19:02:05.005Z,6.50
2022-09-25T19:04:34.435Z,5.13
2022-09-25T19:07:02.807Z,4.60
2022-09-25T19:09:31.964Z,5.03
2022-09-25T19:12:00.261Z,3.93
2022-09-25T19:14:30.233Z,4.00
2022-09-25T19:16:58.580Z,5.73
2022-09-25T19:19:27.831Z,6.53
2022-09-25T19:21:56.348Z,4.13
2022-09-25T19:24:24.664Z,5.70
2022-09-25T19:26:52.947Z,6.27
2022-09-25T19:29:21.477Z,6.93
2022-09-25T19:31:51.139Z,6.43
2022-09-25T19:34:19.451Z,5.43
2022-09-25T19:36:47.776Z,5.03
2022-09-25T19:39:16.107Z,6.13
2022-09-25T19:41:44.799Z,5.60
2022-09-25T19:44:15.019Z,6.30
2022-09-25T19:46:44.298Z,8.00
2022-09-25T19:49:15.709Z,6.60
2022-09-25T19:51:45.073Z,5.83
2022-09-25T19:54:15.529Z,5.60
2022-09-25T19:56:46.254Z,5.80
2022-09-25T19:59:15.956Z,4.63
2022-09-25T20:01:44.944Z,5.97
2022-09-25T20:04:18.639Z,5.03
2022-09-25T20:06:48.697Z,5.13
2022-09-25T20:09:17.201Z,5.87
2022-09-25T20:11:45.834Z,5.97
2022-09-25T20:14:14.252Z,5.07
2022-09-25T20:16:42.574Z,8.27
2022-09-25T20:19:11.730Z,6.57
2022-09-25T20:21:41.800Z,4.77
2022-09-25T20:24:10.646Z,5.57
2022-09-25T20:26:39.424Z,6.70
2022-09-25T20:29:09.866Z,5.67
2022-09-25T20:31:42.308Z,6.23
2022-09-25T20:34:13.850Z,6.07
2022-09-25T20:36:43.996Z,6.87
2022-09-25T20:39:20.620Z,5.33
2022-09-25T20:41:50.089Z,5.30
2022-09-25T20:44:18.386Z,6.30
2022-09-25T20:46:46.718Z,4.10
2022-09-25T20:49:17.283Z,4.73
2022-09-25T20:51:47.478Z,7.50
2022-09-25T20:54:16.246Z,5.03
2022-09-25T20:56:45.469Z,6.40
2022-09-25T20:59:16.177Z,6.63
2022-09-25T21:01:44.776Z,5.80
2022-09-25T21:04:13.477Z,6.23
2022-09-25T21:06:42.768Z,5.77
2022-09-25T21:09:19.190Z,7.13
2022-09-25T21:11:48.277Z,5.57
2022-09-25T21:14:19.635Z,6.23
2022-09-25T21:16:48.863Z,6.70
2022-09-25T21:19:18.734Z,5.90
2022-09-25T21:21:47.163Z,6.23
2022-09-25T21:24:19.124Z,7.60
2022-09-25T21:26:48.017Z,8.70
2022-09-25T21:29:17.248Z,6.37
2022-09-25T21:31:49.884Z,5.83
2022-09-25T21:34:19.537Z,4.80
2022-09-25T21:36:48.319Z,6.23
2022-09-25T21:39:20.805Z,5.10
2022-09-25T21:41:49.985Z,6.83
2022-09-25T21:44:20.376Z,6.80
2022-09-25T21:46:48.680Z,5.90
2022-09-25T21:49:18.779Z,5.43
2022-09-25T21:51:48.158Z,7.80
2022-09-25T21:54:18.596Z,7.77
2022-09-25T21:56:49.123Z,6.43
2022-09-25T21:59:17.699Z,8.20
2022-09-25T22:01:46.353Z,4.87
2022-09-25T22:04:15.468Z,6.40
2022-09-25T22:06:45.615Z,5.87
2022-09-25T22:09:16.887Z,6.63
2022-09-25T22:11:48.054Z,6.67
2022-09-25T22:14:16.894Z,6.53
2022-09-25T22:16:46.903Z,7.83
2022-09-25T22:19:17.452Z,6.80
2022-09-25T22:21:47.609Z,6.80
2022-09-25T22:24:16.445Z,5.50
2022-09-25T22:26:48.368Z,5.43
2022-09-25T22:29:17.671Z,6.03
2022-09-25T22:31:46.126Z,5.47
2022-09-25T22:34:18.402Z,5.53
2022-09-25T22:36:47.469Z,6.50
2022-09-25T22:39:17.572Z,4.97
2022-09-25T22:41:50.876Z,7.20
2022-09-25T22:44:19.784Z,7.43
2022-09-25T22:46:48.460Z,6.13
2022-09-25T22:49:16.751Z,7.63
2022-09-25T22:51:45.099Z,6.63
2022-09-25T22:54:14.710Z,8.47
2022-09-25T22:56:43.993Z,6.67
2022-09-25T22:59:16.224Z,5.30
2022-09-25T23:01:47.723Z,5.67
2022-09-25T23:04:17.957Z,6.07
2022-09-25T23:06:46.251Z,4.23
2022-09-25T23:09:16.711Z,6.23
2022-09-25T23:11:46.113Z,6.67
2022-09-25T23:14:19.448Z,6.80
2022-09-25T23:16:49.388Z,5.50
2022-09-25T23:19:18.377Z,7.27
2022-09-25T23:21:48.819Z,4.07
2022-09-25T23:24:19.299Z,8.63
2022-09-25T23:26:47.742Z,6.37
2022-09-25T23:29:20.828Z,5.53
2022-09-25T23:31:50.435Z,6.23
2022-09-25T23:34:18.942Z,6.60
2022-09-25T23:36:47.453Z,5.67
2022-09-25T23:39:18.203Z,6.33
2022-09-25T23:41:46.657Z,5.30
2022-09-25T23:44:15.313Z,4.07
2022-09-25T23:46:45.261Z,6.47
2022-09-25T23:49:13.940Z,4.77
2022-09-25T23:51:43.852Z,4.47
2022-09-25T23:54:17.440Z,5.03
2022-09-25T23:56:45.892Z,5.33
2022-09-25T23:59:14.730Z,5.27
